Searcy, Arkansas
Current Conditions -  °F | °C
As of 4:56 AM on Sunday 23 Nov 2014 (Local Time) from KSRC Reporting Station
Light Rain Light Rain  
Wind Chill: 57°   Ceiling: 900
Heat Index: 57°   Visibility: 10mi
Dew Point: 56°   Wind: 13mph
Humidity: 96%   Direction: 150°SSE
Pressure: 29.73"   Gusts: NA
Location:  35.25°N, 91.74°W
Report Text: KSRC 231056Z AUTO 15011KT 10SM -RA OVC009 14/13 A2973 RMK AO2 CIG 006V011 SLP073 P0002 T01390133 TSNO
Loading
Personal Weather Stations






























Interactive Weather Map New forecast layout! Learn more

10-Day Weather Forecast

Advertisements
Track Severe Weather on mobile